Terminal Aerodrome Forecast
Issued by NWS

Home | Current Version | Previous Version | Graphics & Text | Print | Product List | Glossary On
Versions: 1 2 3 4 5 6 7 8 9 10 11 12 13 14 15 16
000
FTUS42 KMHX 141700
TAFOAJ
TAF
KOAJ 141732Z 1418/1518 17015G24KT P6SM BKN035 OVC200
     FM142300 16012KT P6SM VCSH BKN015
     FM150300 17008KT P6SM VCSH OVC007
     FM151200 19012G19KT P6SM VCSH BKN025
     FM151500 19014G23KT P6SM -RA VCTS BKN025CB
      AMD LTD TO CLD VIS AND WIND=

USA.gov is the U.S. government's official web portal to all federal, state and local government web resources and services.